Taasinge Maersk — OUSX2 — position and weather

sailwx.info

Track history (hours):
 
Tides and Currents Weather Stations Pressure Air Temp Water Temp Dewpoint Dewpoint Depression Visibility Wind Speed Wind Dir Waves Ship Positions

Taasinge Maersk

Last reported at 2015-Jul-01 08:04 UTC. Time now 2015-Jul-02 00:58 UTC.
Position N 35°53' W 005°30'.

Length 191 m; draft 9.2 m.

Type: Cargo ship. MMSI: 220157000.

Date/timePositionNaut miles runAvg speedWind from/ knotsBaromVisibWave heightAir tempDewpointWater temp
2015-Jul-01 08:04N 35°53' W 005°30'0 0.0
2015-Jul-01 07:31N 35°53' W 005°30'0 0.0
2015-Jul-01 03:19N 35°53' W 005°30'0 0.0
2015-Jul-01 02:25N 35°53' W 005°30'2 2.2
2015-Jul-01 01:19N 35°55' W 005°32'2 2.7
2015-Jul-01 00:32N 35°54' W 005°35'3 2.1
2015-Jun-30 23:08N 35°57' W 005°33'5 8.5
2015-Jun-30 22:34N 35°59' W 005°28'8 8.0
2015-Jun-30 21:34N 36°07' W 005°24'4 3.8
2015-Jun-30 20:32N 36°10' W 005°24'0 0.0
2015-Jun-30 19:32N 36°10' W 005°24'0 0.0
2015-Jun-30 07:23N 36°10' W 005°24'0 0.0
2015-Jun-30 06:26N 36°10' W 005°24'0 0.0
2015-Jun-30 04:26N 36°10' W 005°24'2 2.2
2015-Jun-30 03:26N 36°09' W 005°26'1 0.2
2015-Jun-29 23:19N 36°08' W 005°26'0 0.0
2015-Jun-29 22:32N 36°08' W 005°26'0 0.0
2015-Jun-29 21:14N 36°08' W 005°26'0 0.0
2015-Jun-29 19:32N 36°08' W 005°26'0 0.0
2015-Jun-29 18:24N 36°08' W 005°26'0 0.0
2015-Jun-29 17:30N 36°08' W 005°26'0 0.0
2015-Jun-29 16:23N 36°08' W 005°26'0 0.0
2015-Jun-29 15:31N 36°08' W 005°26'0 0.0
2015-Jun-29 14:32N 36°08' W 005°26'0 0.0
2015-Jun-29 13:30N 36°08' W 005°26'0 0.0
2015-Jun-29 12:27N 36°08' W 005°26'0 0.0
2015-Jun-29 11:33N 36°08' W 005°26'5 4.9
2015-Jun-29 10:33N 36°05' W 005°21'8 7.9
2015-Jun-29 09:33N 36°06' W 005°12'6 1.2
2015-Jun-29 04:32N 36°01' W 005°07'1111.2
2015-Jun-29 03:33N 35°59' W 005°20'6510.5
2015-Jun-28 21:21N 35°28' W 006°31'1210.8
2015-Jun-28 20:12N 35°20' W 006°42'710.5
2015-Jun-28 19:33N 35°15' W 006°48'1110.7
2015-Jun-28 18:31N 35°07' W 006°58'1010.8
2015-Jun-28 17:33N 35°00' W 007°07'1110.6
2015-Jun-28 16:33N 34°51' W 007°14'3611.1
2015-Jun-28 13:16N 34°27' W 007°48'22112.4
2015-Jun-27 19:23N 31°44' W 010°45'18612.6
2015-Jun-27 04:33N 29°10' W 012°47'3812.4
2015-Jun-27 01:28N 28°38' W 013°11'1112.3
2015-Jun-27 00:32N 28°29' W 013°19'1212.2
2015-Jun-26 23:33N 28°19' W 013°26'1212.2
2015-Jun-26 22:33N 28°09' W 013°34'1212.3
2015-Jun-26 21:33N 27°59' W 013°42'1212.3
2015-Jun-26 20:33N 27°49' W 013°51'1212.1
2015-Jun-26 19:31N 27°39' W 013°60'1212.3
2015-Jun-26 18:33N 27°30' W 014°08'1412.4
2015-Jun-26 17:27N 27°19' W 014°17'1312.3
2015-Jun-26 16:23N 27°09' W 014°27'1612.0
2015-Jun-26 15:04N 26°57' W 014°38'812.5
2015-Jun-26 14:26N 26°51' W 014°43'  
Track history (hours):
 
Tides and Currents Weather Stations Pressure Air Temp Water Temp Dewpoint Dewpoint Depression Visibility Wind Speed Wind Dir Waves Ship Positions

Taasinge Maersk

Last reported at 2015-Jul-01 08:04 UTC. Time now 2015-Jul-02 00:58 UTC.
Position N 35°53' W 005°30'.

Length 191 m; draft 9.2 m.

Type: Cargo ship. MMSI: 220157000.

Date/timePositionNaut miles runAvg speedWind from/ knotsBaromVisibWave heightAir tempDewpointWater temp
2015-Jul-01 08:04N 35°53' W 005°30'0 0.0
2015-Jul-01 07:31N 35°53' W 005°30'0 0.0
2015-Jul-01 03:19N 35°53' W 005°30'0 0.0
2015-Jul-01 02:25N 35°53' W 005°30'2 2.2
2015-Jul-01 01:19N 35°55' W 005°32'2 2.7
2015-Jul-01 00:32N 35°54' W 005°35'3 2.1
2015-Jun-30 23:08N 35°57' W 005°33'5 8.5
2015-Jun-30 22:34N 35°59' W 005°28'8 8.0
2015-Jun-30 21:34N 36°07' W 005°24'4 3.8
2015-Jun-30 20:32N 36°10' W 005°24'0 0.0
2015-Jun-30 19:32N 36°10' W 005°24'0 0.0
2015-Jun-30 07:23N 36°10' W 005°24'0 0.0
2015-Jun-30 06:26N 36°10' W 005°24'0 0.0
2015-Jun-30 04:26N 36°10' W 005°24'2 2.2
2015-Jun-30 03:26N 36°09' W 005°26'1 0.2
2015-Jun-29 23:19N 36°08' W 005°26'0 0.0
2015-Jun-29 22:32N 36°08' W 005°26'0 0.0
2015-Jun-29 21:14N 36°08' W 005°26'0 0.0
2015-Jun-29 19:32N 36°08' W 005°26'0 0.0
2015-Jun-29 18:24N 36°08' W 005°26'0 0.0
2015-Jun-29 17:30N 36°08' W 005°26'0 0.0
2015-Jun-29 16:23N 36°08' W 005°26'0 0.0
2015-Jun-29 15:31N 36°08' W 005°26'0 0.0
2015-Jun-29 14:32N 36°08' W 005°26'0 0.0
2015-Jun-29 13:30N 36°08' W 005°26'0 0.0
2015-Jun-29 12:27N 36°08' W 005°26'0 0.0
2015-Jun-29 11:33N 36°08' W 005°26'5 4.9
2015-Jun-29 10:33N 36°05' W 005°21'8 7.9
2015-Jun-29 09:33N 36°06' W 005°12'6 1.2
2015-Jun-29 04:32N 36°01' W 005°07'1111.2
2015-Jun-29 03:33N 35°59' W 005°20'6510.5
2015-Jun-28 21:21N 35°28' W 006°31'1210.8
2015-Jun-28 20:12N 35°20' W 006°42'710.5
2015-Jun-28 19:33N 35°15' W 006°48'1110.7
2015-Jun-28 18:31N 35°07' W 006°58'1010.8
2015-Jun-28 17:33N 35°00' W 007°07'1110.6
2015-Jun-28 16:33N 34°51' W 007°14'3611.1
2015-Jun-28 13:16N 34°27' W 007°48'22112.4
2015-Jun-27 19:23N 31°44' W 010°45'18612.6
2015-Jun-27 04:33N 29°10' W 012°47'3812.4
2015-Jun-27 01:28N 28°38' W 013°11'1112.3
2015-Jun-27 00:32N 28°29' W 013°19'1212.2
2015-Jun-26 23:33N 28°19' W 013°26'1212.2
2015-Jun-26 22:33N 28°09' W 013°34'1212.3
2015-Jun-26 21:33N 27°59' W 013°42'1212.3
2015-Jun-26 20:33N 27°49' W 013°51'1212.1
2015-Jun-26 19:31N 27°39' W 013°60'1212.3
2015-Jun-26 18:33N 27°30' W 014°08'1412.4
2015-Jun-26 17:27N 27°19' W 014°17'1312.3
2015-Jun-26 16:23N 27°09' W 014°27'1612.0
2015-Jun-26 15:04N 26°57' W 014°38'812.5
2015-Jun-26 14:26N 26°51' W 014°43'  

Dump ship's entire track history